Archival Weather

NSFA McMurdo Sound

NSFA McMurdo Sound, Antarctica (NZCM)

Report from: Friday, September 23, 2022 2:33 PM UTC
Current time: Sunday, December 4, 2022 12:47 PM UTC

Current weather
Weather history
Weather forecast

Present weatherLight snow, mist
Temperature-18.9°C (-2.0°F)
Wind chill-26.3°C (-15.4°F)
Dew point-23.5°C (-10.3°F)
Winds 6 kts (3.1 m/s, 6.9 mph) Vrb
Wind gusts 14 kts (7.2 m/s, 16.1 mph)
Winds variableWinds variable from East (90°) to South (180°)
Visibility1.6 mi. (2.5 km)
Clouds Ceiling: Overcast 1,200 ft. (366 m)
Altimeter28.63 in.Hg (970 mB)
Precip. events Snow ended 1:57 PM
Snow began 1:59 PM
Snow ended 2:23 PM
Snow began 2:33 PM
Relative humidity67 %
Density altitude-2,765 ft. (-843 m)
Sea-level pressure107.0 kPa (1070 mB, 31.60 in.Hg)
Remarks Fully automated report
System requires maintenance
Special weather observation
Automated weather observing station with precipitation discriminator
Flight conditions Instrument Meteorological Conditions
Raw dataSPECI NZCM 231433Z AUTO 13006G14KT 090V180 2500 -SN BR OVC012 M19/M24 A2863 RMK AO2 WSHFT 1414 SNE1357B1359E1423B1433 SLP702 T11891235 $
An error has occurred. This application may no longer respond until reloaded. Reload 🗙